Terminal Aerodrome Forecast
Issued by NWS

Home | Current Version | Previous Version | Text Only | Print | Product List | Glossary On
Versions: 1 2 3 4 5 6 7 8 9 10 11 12 13
000
FTUS46 KHNX 242300
TAFMER
TAF
KMER 242320Z 2500/2524 35014G18KT P6SM SCT090 BKN200
     FM250300 34008KT P6SM SCT090 BKN120
     FM250600 34010KT P6SM SCT070 BKN100
     FM251400 33010KT P6SM -RA BKN035 OVC050=

USA.gov is the U.S. government's official web portal to all federal, state and local government web resources and services.